Terminal Aerodrome Forecast
Issued by NWS

Home | Current Version | Previous Version | Text Only | Print | Product List | Glossary Off
Versions: 1 2 3 4 5 6 7 8 9 10 11 12 13 14 15 16 17

000
FTUS43 KGRB 241300 AAA
TAFCWA
TAF AMD
KCWA 241356Z 2414/2512 12010KT 6SM -RASN SCT012 OVC028
     FM241500 11011G20KT 5SM -RA BR BKN012 OVC020
     FM241900 12012G20KT 2SM -RA BR BKN007 OVC012
     FM250100 12007KT 3SM -RA BR BKN007 OVC012
     FM250800 29005KT 6SM -SHRA BR SCT012 BKN020=

USA.gov is the U.S. government's official web portal to all federal, state and local government web resources and services.